Time;durP1;ratioP1;P1;durP2;ratioP2;P2;SDS_P1;SDS_P2;PMS_P1;PMS_P2;Temp;Humidity;BMP_temperature;BMP_pressure;BME280_temperature;BME280_humidity;BME280_pressure;Samples;Min_cycle;Max_cycle;Signal;HPM_P1;HPM_P2
2021/11/21 00:00:30;;;;;;;21.63;3.13;;;9.40;99.90;;;;;;5042880;28;20022;-75
2021/11/21 00:02:57;;;;;;;3.80;2.30;;;9.40;99.90;;;;;;5044090;28;20025;-75
2021/11/21 00:05:23;;;;;;;5.75;2.20;;;9.40;99.90;;;;;;5039693;28;20052;-74
2021/11/21 00:07:49;;;;;;;8.05;2.17;;;9.40;99.90;;;;;;5024582;28;20470;-73
2021/11/21 00:10:15;;;;;;;9.38;2.47;;;9.40;99.90;;;;;;5022915;28;20052;-75
2021/11/21 00:12:40;;;;;;;5.53;2.35;;;9.40;99.90;;;;;;5026130;28;20026;-74
2021/11/21 00:15:07;;;;;;;5.95;2.95;;;9.40;99.90;;;;;;5027689;28;20038;-73
2021/11/21 00:17:33;;;;;;;4.32;2.30;;;9.40;99.90;;;;;;5027760;28;20030;-75
2021/11/21 00:19:59;;;;;;;7.15;2.72;;;9.40;99.90;;;;;;5027612;28;20072;-76
2021/11/21 00:22:25;;;;;;;8.10;3.40;;;9.40;99.90;;;;;;5043775;28;20033;-75
2021/11/21 00:24:52;;;;;;;9.77;3.45;;;9.40;99.90;;;;;;5048012;28;20022;-76
2021/11/21 00:27:19;;;;;;;10.10;2.97;;;9.40;99.90;;;;;;5047737;28;20075;-74
2021/11/21 00:29:44;;;;;;;3.67;2.00;;;9.40;99.90;;;;;;5045906;28;20169;-75
2021/11/21 00:32:10;;;;;;;7.88;3.20;;;9.40;99.90;;;;;;5047205;28;20073;-75
2021/11/21 00:34:36;;;;;;;5.38;2.75;;;9.40;99.90;;;;;;5046727;28;20140;-74
2021/11/21 00:37:02;;;;;;;7.13;2.88;;;9.40;99.90;;;;;;5047185;28;20032;-75
2021/11/21 00:39:28;;;;;;;9.32;3.17;;;9.40;99.90;;;;;;5047043;28;20501;-76
2021/11/21 00:41:55;;;;;;;5.88;2.90;;;9.40;99.90;;;;;;5062737;28;20033;-76
2021/11/21 00:44:22;;;;;;;7.60;1.98;;;9.40;99.90;;;;;;5062793;28;20060;-76
2021/11/21 00:46:48;;;;;;;11.20;3.53;;;9.40;99.90;;;;;;5047326;28;20030;-76
2021/11/21 00:49:16;;;;;;;4.05;2.20;;;9.40;99.90;;;;;;5046864;28;20087;-75
2021/11/21 00:51:42;;;;;;;6.50;3.50;;;9.40;99.90;;;;;;5046901;28;20044;-75
2021/11/21 00:54:21;;;;;;;8.57;2.70;;;9.40;99.90;;;;;;5046914;28;20037;-75
2021/11/21 00:56:47;;;;;;;7.45;2.80;;;9.40;99.90;;;;;;5046969;28;20026;-75
2021/11/21 00:59:13;;;;;;;6.68;3.38;;;9.40;99.90;;;;;;5061716;28;20060;-77
2021/11/21 01:01:39;;;;;;;5.25;2.30;;;9.40;99.90;;;;;;5046919;28;20025;-76
2021/11/21 01:04:05;;;;;;;8.00;3.33;;;9.30;99.90;;;;;;5046802;28;20026;-75
2021/11/21 01:06:31;;;;;;;7.82;3.53;;;9.40;99.90;;;;;;5046461;28;20025;-73
2021/11/21 01:08:56;;;;;;;8.93;3.30;;;9.40;99.90;;;;;;5046511;28;20501;-76
2021/11/21 01:11:22;;;;;;;9.98;2.38;;;9.30;99.90;;;;;;5046535;28;20030;-77
2021/11/21 01:13:47;;;;;;;6.50;2.28;;;9.40;99.90;;;;;;5046491;28;20414;-75
2021/11/21 01:16:14;;;;;;;15.05;3.95;;;9.30;99.90;;;;;;5046296;28;20029;-73
2021/11/21 01:18:39;;;;;;;10.95;3.13;;;9.30;99.90;;;;;;5046230;28;20024;-77
2021/11/21 01:21:05;;;;;;;6.00;2.38;;;9.30;99.90;;;;;;5045523;28;20026;-75
2021/11/21 01:23:31;;;;;;;8.27;3.10;;;9.40;99.90;;;;;;5052216;28;20060;-76
2021/11/21 01:25:57;;;;;;;11.20;2.45;;;9.30;99.90;;;;;;5025000;28;20045;-76
2021/11/21 01:28:25;;;;;;;9.85;2.55;;;9.40;99.90;;;;;;5024951;28;20501;-76
2021/11/21 01:30:51;;;;;;;5.22;2.45;;;9.30;99.90;;;;;;5025101;28;20372;-76
2021/11/21 01:33:16;;;;;;;7.32;2.47;;;9.40;99.90;;;;;;5024735;28;20041;-73
2021/11/21 01:35:42;;;;;;;7.55;3.20;;;9.40;99.90;;;;;;5025354;28;20045;-75
2021/11/21 01:38:08;;;;;;;9.23;3.45;;;9.40;99.90;;;;;;5025838;28;20558;-74
2021/11/21 01:40:35;;;;;;;7.03;2.72;;;9.40;99.90;;;;;;5024676;28;20392;-74
2021/11/21 01:43:02;;;;;;;6.63;2.92;;;9.40;99.90;;;;;;5025950;28;20026;-74
2021/11/21 01:45:30;;;;;;;7.07;3.42;;;9.40;99.90;;;;;;5025682;28;20026;-75
2021/11/21 01:47:55;;;;;;;5.32;2.20;;;9.40;99.90;;;;;;5024475;28;20096;-76
2021/11/21 01:50:26;;;;;;;5.97;2.80;;;9.40;99.90;;;;;;5026197;28;20474;-73
2021/11/21 01:52:52;;;;;;;5.07;2.30;;;9.40;99.90;;;;;;5024671;28;20092;-76
2021/11/21 01:55:18;;;;;;;7.68;3.33;;;9.40;99.90;;;;;;5024611;28;20490;-74
2021/11/21 01:57:44;;;;;;;5.38;2.80;;;9.40;99.90;;;;;;5025971;28;20502;-74
2021/11/21 02:00:14;;;;;;;9.43;3.10;;;9.40;99.90;;;;;;5025904;28;20090;-77
2021/11/21 02:02:41;;;;;;;7.70;2.95;;;9.40;99.90;;;;;;5025801;28;20057;-76
2021/11/21 02:05:08;;;;;;;6.55;2.60;;;9.40;99.90;;;;;;5025568;28;20041;-74
2021/11/21 02:07:34;;;;;;;8.75;3.33;;;9.40;99.90;;;;;;5025716;28;20033;-77
2021/11/21 02:10:00;;;;;;;13.30;4.10;;;9.40;99.90;;;;;;5025667;28;20022;-76
2021/11/21 02:12:26;;;;;;;9.93;3.78;;;9.40;99.90;;;;;;5025749;28;20094;-75
2021/11/21 02:14:52;;;;;;;8.57;3.35;;;9.40;99.90;;;;;;5025711;28;20038;-76
2021/11/21 02:17:18;;;;;;;13.57;3.97;;;9.40;99.90;;;;;;5024731;28;20376;-76
2021/11/21 02:19:44;;;;;;;10.05;3.20;;;9.40;99.90;;;;;;5035307;28;21155;-76
2021/11/21 02:22:10;;;;;;;12.85;3.60;;;9.40;99.90;;;;;;5043900;28;20061;-74
2021/11/21 02:24:35;;;;;;;6.13;2.95;;;9.40;99.90;;;;;;5045135;28;20057;-76
2021/11/21 02:27:02;;;;;;;9.07;3.15;;;9.40;99.90;;;;;;5045179;28;20025;-75
2021/11/21 02:29:28;;;;;;;6.28;2.55;;;9.40;99.90;;;;;;5044563;28;20048;-77
2021/11/21 02:31:54;;;;;;;6.10;2.88;;;9.40;99.90;;;;;;5037738;28;20040;-76
2021/11/21 02:34:19;;;;;;;4.75;2.50;;;9.40;99.90;;;;;;5044976;28;20085;-74
2021/11/21 02:36:47;;;;;;;5.63;3.22;;;9.40;99.90;;;;;;5039061;28;20075;-73
2021/11/21 02:39:14;;;;;;;5.07;3.13;;;9.40;99.90;;;;;;5043831;28;20053;-72
2021/11/21 02:41:40;;;;;;;15.13;3.90;;;9.40;99.90;;;;;;5030456;28;20050;-73
2021/11/21 02:44:07;;;;;;;7.13;3.70;;;9.40;99.90;;;;;;5040176;28;20025;-73
2021/11/21 02:46:34;;;;;;;6.35;3.17;;;9.40;99.90;;;;;;5044829;28;20056;-74
2021/11/21 02:49:00;;;;;;;13.40;3.28;;;9.40;99.90;;;;;;5036537;28;20041;-73
2021/11/21 02:51:26;;;;;;;5.30;2.78;;;9.40;99.90;;;;;;5027615;28;20036;-74
2021/11/21 02:53:53;;;;;;;11.05;3.08;;;9.40;99.90;;;;;;5029453;28;20034;-73
2021/11/21 02:56:19;;;;;;;8.27;3.03;;;9.40;99.90;;;;;;5024976;28;20026;-73
2021/11/21 02:58:46;;;;;;;9.70;4.15;;;9.40;99.90;;;;;;5024818;28;20040;-73
2021/11/21 03:01:19;;;;;;;9.98;3.20;;;9.40;99.90;;;;;;5023677;28;20483;-74
2021/11/21 03:03:46;;;;;;;6.80;3.03;;;9.30;99.90;;;;;;5024919;28;20034;-74
2021/11/21 03:06:11;;;;;;;14.95;4.72;;;9.30;99.90;;;;;;5036035;28;20540;-73
2021/11/21 03:08:38;;;;;;;15.40;3.92;;;9.20;99.90;;;;;;5024794;28;20034;-75
2021/11/21 03:11:25;;;;;;;9.02;3.78;;;9.20;99.90;;;;;;5029138;28;20024;-76
2021/11/21 03:13:50;;;;;;;6.60;3.15;;;9.20;99.90;;;;;;5043249;28;20040;-75
2021/11/21 03:16:16;;;;;;;9.02;3.05;;;9.20;99.90;;;;;;5043244;28;20030;-75
2021/11/21 03:18:42;;;;;;;6.63;3.38;;;9.10;99.90;;;;;;5059747;28;20022;-75
2021/11/21 03:21:07;;;;;;;13.02;3.83;;;9.10;99.90;;;;;;5059509;28;20091;-74
2021/11/21 03:23:33;;;;;;;5.40;2.92;;;9.10;99.90;;;;;;5044415;28;20096;-74
2021/11/21 03:25:59;;;;;;;5.03;2.75;;;9.10;99.90;;;;;;5044473;28;20025;-76
2021/11/21 03:28:25;;;;;;;8.00;3.97;;;9.10;99.90;;;;;;5044505;28;20026;-74
2021/11/21 03:30:51;;;;;;;8.98;3.55;;;9.10;99.90;;;;;;5030057;28;20052;-75
2021/11/21 03:33:17;;;;;;;10.50;3.60;;;9.10;99.90;;;;;;5023114;28;20049;-76
2021/11/21 03:35:43;;;;;;;8.13;3.25;;;9.00;99.90;;;;;;5023107;28;20074;-75
2021/11/21 03:38:09;;;;;;;5.10;2.92;;;9.10;99.90;;;;;;5023166;28;20525;-76
2021/11/21 03:40:34;;;;;;;7.10;2.95;;;9.00;99.90;;;;;;5024393;28;20026;-77
2021/11/21 03:43:02;;;;;;;5.93;3.22;;;9.00;99.90;;;;;;5023078;28;20022;-76
2021/11/21 03:45:29;;;;;;;5.85;3.20;;;9.00;99.90;;;;;;5024730;28;20026;-77
2021/11/21 03:47:55;;;;;;;7.40;2.83;;;9.00;99.90;;;;;;5028569;28;20022;-77
2021/11/21 03:50:21;;;;;;;5.70;2.63;;;9.00;99.90;;;;;;5026951;28;20061;-75
2021/11/21 03:52:46;;;;;;;5.18;2.47;;;9.00;99.90;;;;;;5026844;28;20025;-74
2021/11/21 03:55:16;;;;;;;12.77;2.50;;;9.00;99.90;;;;;;5026793;28;20073;-75
2021/11/21 03:57:42;;;;;;;5.30;2.50;;;9.00;99.90;;;;;;5028290;28;20033;-73
2021/11/21 04:00:15;;;;;;;4.57;2.60;;;9.00;99.90;;;;;;5028062;28;20030;-75
2021/11/21 04:02:41;;;;;;;4.20;1.83;;;9.00;99.90;;;;;;5028165;28;20018;-74
2021/11/21 04:05:10;;;;;;;3.83;2.47;;;9.00;99.90;;;;;;5028072;28;20098;-74
2021/11/21 04:07:36;;;;;;;4.45;1.85;;;9.00;99.90;;;;;;5028009;28;20033;-75
2021/11/21 04:10:04;;;;;;;5.80;2.28;;;9.00;99.90;;;;;;5026620;28;20026;-74
2021/11/21 04:12:29;;;;;;;5.05;1.92;;;9.00;99.90;;;;;;5026851;28;20033;-73
2021/11/21 04:14:55;;;;;;;6.20;1.48;;;9.00;99.90;;;;;;5027884;28;20034;-74
2021/11/21 04:17:21;;;;;;;5.22;2.05;;;9.00;99.90;;;;;;5028066;28;20048;-74
2021/11/21 04:19:47;;;;;;;5.93;2.47;;;9.00;99.90;;;;;;5027769;28;20084;-74
2021/11/21 04:22:13;;;;;;;6.15;2.40;;;8.90;99.90;;;;;;5027898;28;20026;-73
2021/11/21 04:24:38;;;;;;;11.45;2.10;;;8.90;99.90;;;;;;5026137;28;20394;-73
2021/11/21 04:27:04;;;;;;;6.90;2.50;;;8.90;99.90;;;;;;5027502;28;20059;-73
2021/11/21 04:29:32;;;;;;;8.95;2.22;;;8.90;99.90;;;;;;5026208;28;20034;-73
2021/11/21 04:31:59;;;;;;;3.72;1.60;;;8.90;99.90;;;;;;5027449;28;20019;-73
2021/11/21 04:34:25;;;;;;;4.15;1.95;;;8.90;99.90;;;;;;5027060;28;20058;-73
2021/11/21 04:36:53;;;;;;;2.67;1.58;;;8.90;99.90;;;;;;5027625;28;20038;-73
2021/11/21 04:39:19;;;;;;;3.30;1.52;;;9.00;99.90;;;;;;5026315;28;20098;-73
2021/11/21 04:41:44;;;;;;;1.48;0.90;;;8.90;99.90;;;;;;5027600;28;20057;-72
2021/11/21 04:44:10;;;;;;;3.05;1.20;;;9.00;99.90;;;;;;5027832;28;20121;-73
2021/11/21 04:46:36;;;;;;;5.30;1.88;;;8.90;99.90;;;;;;5028013;28;20026;-73
2021/11/21 04:49:02;;;;;;;6.70;2.00;;;8.90;99.90;;;;;;5027093;28;20077;-72
2021/11/21 04:51:28;;;;;;;3.92;1.98;;;9.00;99.90;;;;;;5027276;28;20029;-72
2021/11/21 04:53:53;;;;;;;5.72;2.25;;;8.90;99.90;;;;;;5027186;28;20030;-74
2021/11/21 04:56:21;;;;;;;4.00;1.55;;;9.00;99.90;;;;;;5026051;28;20030;-72
2021/11/21 04:58:47;;;;;;;5.47;2.03;;;9.00;99.90;;;;;;5025768;28;20028;-74
2021/11/21 05:01:12;;;;;;;2.53;1.33;;;9.00;99.90;;;;;;5027027;28;20029;-73
2021/11/21 05:03:38;;;;;;;3.78;1.48;;;9.00;99.90;;;;;;5026983;28;20022;-73
2021/11/21 05:06:04;;;;;;;3.40;1.70;;;9.00;99.90;;;;;;5026537;28;20478;-73
2021/11/21 05:08:29;;;;;;;2.50;1.17;;;9.00;99.90;;;;;;5025461;28;20089;-73
2021/11/21 05:10:55;;;;;;;2.95;1.33;;;9.00;99.90;;;;;;5026927;28;20467;-74
2021/11/21 05:13:30;;;;;;;2.42;1.45;;;9.00;99.90;;;;;;5027103;28;20486;-73
2021/11/21 05:15:56;;;;;;;3.42;1.27;;;9.00;99.90;;;;;;5026826;28;20050;-73
2021/11/21 05:18:22;;;;;;;2.67;1.23;;;9.00;99.90;;;;;;5026733;28;20041;-72
2021/11/21 05:20:47;;;;;;;3.50;1.33;;;9.00;99.90;;;;;;5025456;28;20482;-73
2021/11/21 05:23:13;;;;;;;5.55;1.20;;;9.00;99.90;;;;;;5026483;28;20467;-73
2021/11/21 05:25:39;;;;;;;1.95;1.05;;;8.90;99.90;;;;;;5025197;28;20030;-73
2021/11/21 05:28:05;;;;;;;1.95;1.23;;;8.90;99.90;;;;;;5037221;28;20553;-74
2021/11/21 05:30:30;;;;;;;2.13;1.10;;;8.90;99.90;;;;;;5039709;28;20104;-73
2021/11/21 05:32:56;;;;;;;3.53;1.08;;;8.90;99.90;;;;;;5025293;28;20030;-74
2021/11/21 05:35:22;;;;;;;3.20;1.70;;;8.90;99.90;;;;;;5024799;28;20494;-73
2021/11/21 05:37:49;;;;;;;1.48;0.93;;;8.90;99.90;;;;;;5026169;28;20029;-73
2021/11/21 05:40:15;;;;;;;3.45;2.00;;;8.80;99.90;;;;;;5024851;28;20026;-74
2021/11/21 05:42:41;;;;;;;5.50;1.45;;;8.80;99.90;;;;;;5026195;28;20022;-74
2021/11/21 05:45:06;;;;;;;2.60;1.23;;;8.80;99.90;;;;;;5026201;28;20026;-73
2021/11/21 05:47:33;;;;;;;1.63;0.90;;;8.80;99.90;;;;;;5026085;28;20037;-74
2021/11/21 05:49:59;;;;;;;2.67;1.45;;;8.80;99.90;;;;;;5028085;28;20030;-73
2021/11/21 05:52:25;;;;;;;7.22;1.13;;;8.80;99.90;;;;;;5026240;28;20534;-74
2021/11/21 05:54:55;;;;;;;2.78;1.23;;;8.80;99.90;;;;;;5024797;28;20076;-74
2021/11/21 05:57:21;;;;;;;3.03;1.10;;;8.80;99.90;;;;;;5024787;28;20093;-73
2021/11/21 05:59:47;;;;;;;4.10;1.38;;;8.80;99.90;;;;;;5025930;28;20034;-72
2021/11/21 06:02:13;;;;;;;3.60;1.10;;;8.80;99.90;;;;;;5025938;28;20045;-73
2021/11/21 06:04:39;;;;;;;4.45;0.95;;;8.80;99.90;;;;;;5027778;28;20029;-73
2021/11/21 06:07:04;;;;;;;1.08;0.63;;;8.80;99.90;;;;;;5025386;28;20033;-73
2021/11/21 06:09:30;;;;;;;2.17;1.08;;;8.80;99.90;;;;;;5045194;28;20033;-72
2021/11/21 06:11:55;;;;;;;1.85;0.98;;;8.80;99.90;;;;;;5045530;28;20099;-72
2021/11/21 06:14:22;;;;;;;1.85;0.85;;;8.80;99.90;;;;;;5049070;28;20110;-73
2021/11/21 06:16:48;;;;;;;2.90;0.90;;;8.80;99.90;;;;;;5059113;28;20067;-72
2021/11/21 06:19:14;;;;;;;0.63;0.35;;;8.70;99.90;;;;;;5055414;28;20498;-72
2021/11/21 06:21:40;;;;;;;3.17;0.38;;;8.70;99.90;;;;;;5027101;28;20025;-72
2021/11/21 06:24:07;;;;;;;5.35;1.10;;;8.70;99.90;;;;;;5025713;28;20030;-73
2021/11/21 06:26:33;;;;;;;1.92;0.68;;;8.70;99.90;;;;;;5023820;28;20409;-73
2021/11/21 06:28:59;;;;;;;1.38;0.77;;;8.70;99.90;;;;;;5025518;28;20037;-74
2021/11/21 06:31:25;;;;;;;1.45;0.65;;;8.70;99.90;;;;;;5037607;28;20046;-73
2021/11/21 06:33:51;;;;;;;3.42;1.10;;;8.70;99.90;;;;;;5025287;28;20057;-71
2021/11/21 06:36:17;;;;;;;5.63;1.88;;;8.70;99.90;;;;;;5025288;28;20026;-72
2021/11/21 06:38:43;;;;;;;2.88;1.15;;;8.70;99.90;;;;;;5025169;28;20057;-70
2021/11/21 06:41:09;;;;;;;8.60;1.45;;;8.70;99.90;;;;;;5026235;28;20033;-71
2021/11/21 06:43:35;;;;;;;4.90;0.95;;;8.70;99.90;;;;;;5033624;28;20036;-73
2021/11/21 06:46:00;;;;;;;1.60;0.80;;;8.70;99.90;;;;;;5025112;28;20025;-73
2021/11/21 06:48:26;;;;;;;2.00;0.77;;;8.70;99.90;;;;;;5027470;28;20049;-72
2021/11/21 06:50:53;;;;;;;3.85;1.00;;;8.70;99.90;;;;;;5037915;28;20032;-72
2021/11/21 06:53:23;;;;;;;1.73;1.08;;;8.70;99.90;;;;;;5032852;28;20032;-72
2021/11/21 06:55:49;;;;;;;2.70;0.90;;;8.70;99.90;;;;;;5045068;28;20030;-73
2021/11/21 06:58:15;;;;;;;4.72;1.33;;;8.70;99.90;;;;;;5044292;28;20196;-72
2021/11/21 07:00:42;;;;;;;3.42;1.30;;;8.70;99.90;;;;;;5034513;28;20030;-71
2021/11/21 07:03:07;;;;;;;5.18;0.77;;;8.70;99.90;;;;;;5033301;28;20064;-71
2021/11/21 07:05:34;;;;;;;5.40;1.23;;;8.70;99.90;;;;;;5044737;28;20037;-72
2021/11/21 07:08:00;;;;;;;3.65;1.10;;;8.70;99.90;;;;;;5042279;28;20025;-73
2021/11/21 07:10:26;;;;;;;0.65;0.47;;;8.70;99.90;;;;;;5043535;28;20029;-73
2021/11/21 07:12:55;;;;;;;2.00;0.70;;;8.60;99.90;;;;;;5024734;28;20029;-74
2021/11/21 07:15:22;;;;;;;1.35;0.95;;;8.60;99.90;;;;;;5042810;28;20049;-73
2021/11/21 07:17:49;;;;;;;2.75;1.10;;;8.60;99.90;;;;;;5043199;28;20022;-72
2021/11/21 07:20:15;;;;;;;2.83;1.05;;;8.70;99.90;;;;;;5038515;28;20029;-74
2021/11/21 07:22:50;;;;;;;1.02;0.55;;;8.70;99.90;;;;;;5046049;28;20111;-73
2021/11/21 07:25:18;;;;;;;1.75;0.95;;;8.70;99.90;;;;;;5048452;28;20097;-73
2021/11/21 07:27:44;;;;;;;1.77;0.82;;;8.70;99.90;;;;;;5047386;28;20088;-72
2021/11/21 07:30:14;;;;;;;6.43;1.05;;;8.70;99.90;;;;;;5067558;28;20053;-73
2021/11/21 07:32:40;;;;;;;12.38;1.45;;;8.70;99.90;;;;;;5039299;28;20474;-74
2021/11/21 07:35:06;;;;;;;4.20;0.88;;;8.70;99.90;;;;;;5036093;28;20510;-73
2021/11/21 07:37:32;;;;;;;1.20;0.70;;;8.70;99.90;;;;;;5030838;28;20041;-76
2021/11/21 07:39:58;;;;;;;2.08;0.70;;;8.60;99.90;;;;;;5045249;28;20030;-75
2021/11/21 07:42:23;;;;;;;5.05;1.42;;;8.60;99.90;;;;;;5043182;28;20401;-75
2021/11/21 07:44:53;;;;;;;5.07;2.17;;;8.70;99.90;;;;;;5048347;28;20037;-74
2021/11/21 07:47:19;;;;;;;4.78;0.93;;;8.60;99.90;;;;;;5047997;28;20064;-74
2021/11/21 07:49:45;;;;;;;2.53;1.15;;;8.60;99.90;;;;;;5036090;28;20359;-74
2021/11/21 07:52:10;;;;;;;5.45;1.20;;;8.60;99.90;;;;;;5036373;28;20029;-74
2021/11/21 07:54:36;;;;;;;0.55;0.25;;;8.70;99.90;;;;;;5047708;28;20072;-74
2021/11/21 07:57:20;;;;;;;4.18;1.42;;;8.60;99.90;;;;;;5066632;28;20033;-75
2021/11/21 07:59:45;;;;;;;0.43;0.22;;;8.60;99.90;;;;;;5067842;28;20025;-74
2021/11/21 08:02:12;;;;;;;1.00;0.65;;;8.70;99.90;;;;;;5035468;28;20044;-75
2021/11/21 08:04:38;;;;;;;2.20;1.15;;;8.70;99.90;;;;;;5033523;28;20120;-75
2021/11/21 08:07:05;;;;;;;4.03;1.52;;;8.70;99.90;;;;;;5026484;28;20395;-74
2021/11/21 08:09:31;;;;;;;3.45;1.83;;;8.70;99.90;;;;;;5036531;28;20053;-76
2021/11/21 08:11:56;;;;;;;2.13;1.15;;;8.70;99.90;;;;;;5047911;28;20036;-74
2021/11/21 08:14:22;;;;;;;2.83;0.85;;;8.70;99.90;;;;;;5034821;28;20062;-74
2021/11/21 08:16:48;;;;;;;10.93;2.15;;;8.70;99.90;;;;;;5028028;28;20041;-74
2021/11/21 08:19:14;;;;;;;5.88;1.58;;;8.70;99.90;;;;;;5029376;28;20021;-75
2021/11/21 08:21:40;;;;;;;1.95;0.55;;;8.70;99.90;;;;;;5031811;28;20029;-74
2021/11/21 08:24:09;;;;;;;2.58;0.77;;;8.60;99.90;;;;;;5047792;28;20493;-73
2021/11/21 08:26:36;;;;;;;5.57;0.70;;;8.60;99.90;;;;;;5046314;28;20092;-74
2021/11/21 08:29:03;;;;;;;3.80;0.88;;;8.60;99.90;;;;;;5047443;28;20036;-73
2021/11/21 08:31:29;;;;;;;1.30;0.77;;;8.60;99.90;;;;;;5047266;28;20053;-76
2021/11/21 08:33:55;;;;;;;1.23;0.60;;;8.60;99.90;;;;;;5045753;28;20061;-73
2021/11/21 08:36:21;;;;;;;1.63;1.15;;;8.60;99.90;;;;;;5046212;28;20029;-74
2021/11/21 08:38:47;;;;;;;5.53;1.27;;;8.50;99.90;;;;;;5045166;28;20025;-73
2021/11/21 08:41:17;;;;;;;3.72;1.15;;;8.50;99.90;;;;;;5044404;28;20041;-74
2021/11/21 08:43:43;;;;;;;16.88;1.05;;;8.50;99.90;;;;;;5044316;28;20033;-74
2021/11/21 08:46:09;;;;;;;3.22;1.38;;;8.50;99.90;;;;;;5045996;28;20038;-75
2021/11/21 08:48:34;;;;;;;3.83;1.30;;;8.50;99.90;;;;;;5038212;28;20431;-74
2021/11/21 08:51:11;;;;;;;5.25;1.38;;;8.50;99.90;;;;;;5043733;28;20071;-76
2021/11/21 08:53:37;;;;;;;6.85;1.48;;;8.50;99.90;;;;;;5057945;28;20120;-75
2021/11/21 08:56:03;;;;;;;0.85;0.50;;;8.50;99.90;;;;;;5027067;28;20038;-75
2021/11/21 08:58:29;;;;;;;4.90;0.85;;;8.60;99.90;;;;;;5058068;28;20040;-75
2021/11/21 09:00:55;;;;;;;9.82;0.88;;;8.70;99.90;;;;;;5041657;28;20034;-73
2021/11/21 09:03:21;;;;;;;11.77;1.75;;;8.80;99.90;;;;;;5031321;28;20060;-75
2021/11/21 09:05:46;;;;;;;4.40;1.42;;;8.90;99.90;;;;;;5039680;28;20030;-74
2021/11/21 09:08:14;;;;;;;1.38;0.85;;;9.00;99.90;;;;;;5045841;28;20580;-76
2021/11/21 09:10:40;;;;;;;8.48;1.25;;;9.10;99.90;;;;;;5031779;28;20018;-75
2021/11/21 09:13:05;;;;;;;2.45;0.70;;;9.20;99.90;;;;;;5035877;28;20542;-75
2021/11/21 09:15:31;;;;;;;2.08;0.88;;;9.30;99.90;;;;;;5025556;28;20037;-74
2021/11/21 09:17:57;;;;;;;12.50;1.73;;;9.50;99.90;;;;;;5027932;28;20033;-74
2021/11/21 09:20:26;;;;;;;2.40;1.00;;;9.60;99.90;;;;;;5043109;28;20026;-76
2021/11/21 09:22:58;;;;;;;1.05;0.35;;;9.80;99.90;;;;;;5041936;28;20029;-77
2021/11/21 09:25:25;;;;;;;4.72;1.63;;;10.00;99.90;;;;;;5038469;28;20470;-73
2021/11/21 09:27:51;;;;;;;4.53;0.73;;;10.30;99.90;;;;;;5037658;28;20053;-75
2021/11/21 09:30:30;;;;;;;13.48;0.68;;;10.50;99.90;;;;;;5037220;28;20064;-77
2021/11/21 09:33:10;;;;;;;1.08;0.40;;;10.50;99.90;;;;;;5048774;28;20442;-76
2021/11/21 09:35:38;;;;;;;2.50;1.02;;;10.50;99.90;;;;;;5036221;28;20100;-76
2021/11/21 09:38:04;;;;;;;2.90;0.73;;;10.50;99.90;;;;;;5039546;28;20029;-77
2021/11/21 09:40:30;;;;;;;2.13;0.57;;;10.80;99.90;;;;;;5041864;28;20022;-76
2021/11/21 09:42:56;;;;;;;3.47;1.13;;;10.60;99.90;;;;;;5038670;28;20037;-76
2021/11/21 09:45:22;;;;;;;5.70;1.27;;;10.60;99.90;;;;;;5035716;28;20034;-76
2021/11/21 09:47:50;;;;;;;1.13;0.73;;;10.50;99.90;;;;;;5043673;28;20045;-76
2021/11/21 09:50:18;;;;;;;3.70;1.42;;;10.30;99.90;;;;;;5047698;28;20017;-76
2021/11/21 09:52:43;;;;;;;13.38;1.33;;;10.20;99.90;;;;;;5061464;28;20025;-76
2021/11/21 09:55:09;;;;;;;13.02;1.15;;;10.30;99.90;;;;;;5038688;28;20038;-77
2021/11/21 09:57:36;;;;;;;2.92;0.63;;;10.40;99.90;;;;;;5037711;28;20085;-77
2021/11/21 10:00:13;;;;;;;17.35;1.63;;;10.50;99.90;;;;;;5041028;28;20025;-77
2021/11/21 10:02:43;;;;;;;5.47;1.10;;;10.60;99.90;;;;;;5039809;28;20064;-76
2021/11/21 10:05:22;;;;;;;2.30;0.80;;;10.60;99.90;;;;;;5039842;28;20023;-74
2021/11/21 10:07:48;;;;;;;4.15;1.10;;;10.60;99.90;;;;;;5044207;28;20157;-77
2021/11/21 10:10:18;;;;;;;1.92;0.65;;;10.50;99.90;;;;;;5043482;28;20037;-77
2021/11/21 10:12:44;;;;;;;9.30;0.95;;;10.60;99.90;;;;;;5036245;28;20033;-77
2021/11/21 10:15:14;;;;;;;2.42;0.50;;;10.50;99.90;;;;;;5040949;28;20072;-77
2021/11/21 10:17:46;;;;;;;5.13;1.15;;;10.60;99.90;;;;;;5038046;28;20022;-76
2021/11/21 10:20:18;;;;;;;3.67;1.33;;;10.80;99.90;;;;;;5039469;28;20048;-76
2021/11/21 10:22:57;;;;;;;2.58;0.70;;;11.10;99.90;;;;;;5034691;28;20014;-80
2021/11/21 10:25:39;;;;;;;4.35;0.90;;;11.40;99.90;;;;;;5029701;28;20038;-78
2021/11/21 10:28:27;;;;;;;8.65;2.10;;;11.50;99.90;;;;;;5037562;28;20040;-76
2021/11/21 10:31:22;;;;;;;10.80;1.40;;;11.90;99.90;;;;;;5023623;28;20479;-76
2021/11/21 10:33:55;;;;;;;6.85;0.60;;;12.00;99.90;;;;;;5002851;28;1077494;-77
2021/11/21 10:36:30;;;;;;;14.55;0.93;;;12.00;99.90;;;;;;5045671;28;20052;-76
2021/11/21 10:39:06;;;;;;;4.47;0.93;;;12.00;99.90;;;;;;5045314;28;20037;-77
2021/11/21 10:41:37;;;;;;;2.55;1.00;;;12.00;99.90;;;;;;5041898;28;20034;-77
2021/11/21 10:44:12;;;;;;;8.18;1.50;;;11.90;99.90;;;;;;5025486;28;20033;-78
2021/11/21 10:46:45;;;;;;;1.63;0.60;;;11.90;99.90;;;;;;5025232;28;20041;-74
2021/11/21 10:49:17;;;;;;;4.75;0.90;;;12.10;99.90;;;;;;5024203;28;20021;-74
2021/11/21 10:51:46;;;;;;;7.00;1.20;;;12.10;99.90;;;;;;5024095;28;20522;-78
2021/11/21 10:54:27;;;;;;;3.25;1.08;;;12.30;99.90;;;;;;5024898;28;20048;-77
2021/11/21 10:57:00;;;;;;;4.43;1.02;;;12.30;99.90;;;;;;5023417;28;20037;-75
2021/11/21 10:59:50;;;;;;;3.03;0.88;;;12.40;99.90;;;;;;5034038;28;20079;-76
2021/11/21 11:02:24;;;;;;;4.90;0.95;;;12.80;99.90;;;;;;5043236;28;20124;-73
2021/11/21 11:05:09;;;;;;;3.50;0.35;;;13.00;99.90;;;;;;5044671;28;20430;-77
2021/11/21 11:07:47;;;;;;;1.55;0.85;;;13.20;99.90;;;;;;5042990;28;20083;-75
2021/11/21 11:10:17;;;;;;;3.50;0.90;;;13.40;99.90;;;;;;5042757;28;20042;-75
2021/11/21 11:12:49;;;;;;;9.13;1.17;;;13.30;99.90;;;;;;5048993;28;20044;-76
2021/11/21 11:15:15;;;;;;;3.63;0.63;;;13.20;99.90;;;;;;5061971;28;20072;-75
2021/11/21 11:17:41;;;;;;;3.17;0.95;;;13.20;99.90;;;;;;5065116;28;20036;-75
2021/11/21 11:20:10;;;;;;;7.05;0.90;;;13.20;99.90;;;;;;5064315;28;20059;-75
2021/11/21 11:22:39;;;;;;;5.18;0.95;;;13.10;99.90;;;;;;5064137;28;20036;-74
2021/11/21 11:25:09;;;;;;;1.13;0.60;;;12.90;99.90;;;;;;5062708;28;20040;-74
2021/11/21 11:27:55;;;;;;;6.47;0.80;;;12.70;99.90;;;;;;5064287;28;20028;-74
2021/11/21 11:30:33;;;;;;;13.75;1.63;;;12.80;99.90;;;;;;5062794;28;20025;-77
2021/11/21 11:33:15;;;;;;;3.33;0.88;;;12.70;99.90;;;;;;5058558;28;20033;-75
2021/11/21 11:35:43;;;;;;;1.80;0.80;;;12.70;99.90;;;;;;5043865;28;20049;-74
2021/11/21 11:38:19;;;;;;;4.70;1.25;;;12.70;99.90;;;;;;5044357;28;20040;-76
2021/11/21 11:40:54;;;;;;;1.58;0.75;;;12.90;99.90;;;;;;5028078;28;20499;-73
2021/11/21 11:43:39;;;;;;;16.52;1.00;;;13.00;99.90;;;;;;5034884;28;20026;-75
2021/11/21 11:46:28;;;;;;;5.25;1.13;;;13.10;99.90;;;;;;5022457;28;20493;-73
2021/11/21 11:49:04;;;;;;;5.47;0.82;;;13.00;99.90;;;;;;5040640;28;20030;-75
2021/11/21 11:51:29;;;;;;;1.70;0.43;;;12.90;99.90;;;;;;5042070;28;20026;-75
2021/11/21 11:54:05;;;;;;;3.78;0.70;;;12.90;99.90;;;;;;5043310;28;20064;-74
2021/11/21 11:56:47;;;;;;;4.65;1.13;;;13.00;99.90;;;;;;5040702;28;20590;-75
2021/11/21 11:59:30;;;;;;;1.23;0.30;;;13.20;99.90;;;;;;5044590;28;20119;-79
2021/11/21 12:02:01;;;;;;;0.25;0.20;;;13.20;99.90;;;;;;5041957;28;20098;-76
2021/11/21 12:04:27;;;;;;;3.42;0.80;;;13.10;99.90;;;;;;5040325;28;20029;-77
2021/11/21 12:07:19;;;;;;;2.20;0.93;;;13.30;99.90;;;;;;5022724;28;20509;-77
2021/11/21 12:10:04;;;;;;;5.80;0.73;;;13.40;99.90;;;;;;5041948;28;20061;-72
2021/11/21 12:12:50;;;;;;;0.40;0.22;;;13.40;99.90;;;;;;5045129;28;20047;-75
2021/11/21 12:15:29;;;;;;;5.75;0.95;;;13.40;99.90;;;;;;5046814;28;20052;-75
2021/11/21 12:17:58;;;;;;;2.33;1.25;;;13.50;99.90;;;;;;5045340;28;20044;-77
2021/11/21 12:20:43;;;;;;;4.05;0.47;;;13.50;99.90;;;;;;5044943;28;20037;-77
2021/11/21 12:23:09;;;;;;;3.70;0.52;;;13.60;99.90;;;;;;5044361;28;20547;-78
2021/11/21 12:25:35;;;;;;;4.00;0.43;;;13.50;99.90;;;;;;5040291;28;20021;-73
2021/11/21 12:28:06;;;;;;;3.42;0.77;;;13.40;99.90;;;;;;5045499;28;20036;-76
2021/11/21 12:30:37;;;;;;;4.82;1.02;;;13.40;99.90;;;;;;5046669;28;20033;-73
2021/11/21 12:33:19;;;;;;;1.02;0.40;;;13.60;99.90;;;;;;5046774;28;20048;-77
2021/11/21 12:35:55;;;;;;;1.70;0.45;;;13.90;99.90;;;;;;5042337;28;20053;-76
2021/11/21 12:38:20;;;;;;;7.70;1.35;;;14.30;99.90;;;;;;5045685;28;20401;-77
2021/11/21 12:40:52;;;;;;;1.92;0.52;;;14.20;99.90;;;;;;5040406;28;20092;-77
2021/11/21 12:43:20;;;;;;;6.65;0.43;;;13.70;99.90;;;;;;5027516;28;20041;-76
2021/11/21 12:45:48;;;;;;;1.02;0.22;;;13.10;99.90;;;;;;5042895;28;20036;-76
2021/11/21 12:48:17;;;;;;;1.65;0.55;;;12.60;99.90;;;;;;5045464;28;20038;-78
2021/11/21 12:50:49;;;;;;;8.23;0.52;;;12.20;99.90;;;;;;5044343;28;20029;-76
2021/11/21 12:53:23;;;;;;;5.95;0.32;;;11.90;99.90;;;;;;5045806;28;20038;-75
2021/11/21 12:55:57;;;;;;;5.10;0.63;;;11.80;99.90;;;;;;5043979;28;20048;-74
2021/11/21 12:58:24;;;;;;;8.57;0.90;;;12.50;99.90;;;;;;5047120;28;20122;-78